createdAt,value
2022-09-28T00:01:54.269Z,99564.83
2022-09-28T00:04:22.736Z,99564.88
2022-09-28T00:06:51.117Z,99561.35
2022-09-28T00:09:19.496Z,99559.50
2022-09-28T00:11:47.980Z,99555.56
2022-09-28T00:14:16.364Z,99557.97
2022-09-28T00:16:44.867Z,99557.86
2022-09-28T00:19:14.027Z,99560.45
2022-09-28T00:21:42.724Z,99561.42
2022-09-28T00:24:21.991Z,99558.96
2022-09-28T00:26:54.537Z,99561.71
2022-09-28T00:29:27.424Z,99559.82
2022-09-28T00:32:05.842Z,99557.71
2022-09-28T00:34:36.309Z,99557.99
2022-09-28T00:37:05.984Z,99557.44
2022-09-28T00:39:36.098Z,99563.02
2022-09-28T00:42:11.338Z,99559.42
2022-09-28T00:44:41.648Z,99558.23
2022-09-28T00:47:10.301Z,99559.80
2022-09-28T00:49:43.644Z,99556.09
2022-09-28T00:52:15.198Z,99560.17
2022-09-28T00:54:45.525Z,99561.11
2022-09-28T00:57:14.622Z,99563.44
2022-09-28T00:59:43.513Z,99561.54
2022-09-28T01:02:12.434Z,99557.44
2022-09-28T01:04:40.990Z,99554.58
2022-09-28T01:07:09.551Z,99556.54
2022-09-28T01:09:39.445Z,99555.14
2022-09-28T01:12:08.385Z,99554.71
2022-09-28T01:14:36.864Z,99562.00
2022-09-28T01:17:14.356Z,99562.52
2022-09-28T01:19:45.609Z,99562.71
2022-09-28T01:22:33.338Z,99560.33
2022-09-28T01:25:01.730Z,99554.10
2022-09-28T01:27:36.652Z,99556.00
2022-09-28T01:30:09.331Z,99554.56
2022-09-28T01:32:41.367Z,99550.57
2022-09-28T01:35:28.755Z,99546.77
2022-09-28T01:38:06.214Z,99547.73
2022-09-28T01:40:35.546Z,99552.67
2022-09-28T01:43:06.557Z,99556.83
2022-09-28T01:45:46.106Z,99556.80
2022-09-28T01:48:17.830Z,99558.20
2022-09-28T01:50:48.901Z,99561.48
2022-09-28T01:53:21.173Z,99558.59
2022-09-28T01:55:52.992Z,99561.45
2022-09-28T01:58:24.795Z,99564.52
2022-09-28T02:00:56.708Z,99570.07
2022-09-28T02:03:30.051Z,99569.40
2022-09-28T02:06:05.834Z,99573.45
2022-09-28T02:08:37.450Z,99573.73
2022-09-28T02:11:13.131Z,99569.41
2022-09-28T02:13:54.393Z,99563.71
2022-09-28T02:16:31.733Z,99571.59
2022-09-28T02:19:00.767Z,99580.11
2022-09-28T02:21:34.379Z,99586.73
2022-09-28T02:24:20.658Z,99589.56
2022-09-28T02:26:52.646Z,99594.14
2022-09-28T02:29:21.229Z,99595.02
2022-09-28T02:31:50.748Z,99598.20
2022-09-28T02:34:19.323Z,99601.19
2022-09-28T02:36:48.519Z,99598.95
2022-09-28T02:39:18.297Z,99598.25
2022-09-28T02:41:59.512Z,99600.83
2022-09-28T02:44:33.933Z,99609.29
2022-09-28T02:47:05.775Z,99608.05
2022-09-28T02:49:37.450Z,99601.30
2022-09-28T02:52:09.027Z,99600.48
2022-09-28T02:54:56.021Z,99595.43
2022-09-28T02:57:25.037Z,99594.00
2022-09-28T03:00:01.280Z,99592.38
2022-09-28T03:02:37.755Z,99587.23
2022-09-28T03:05:25.893Z,99584.85
2022-09-28T03:07:54.352Z,99591.57
2022-09-28T03:10:46.956Z,99591.50
2022-09-28T03:13:17.350Z,99601.42
2022-09-28T03:15:48.812Z,99609.95
2022-09-28T03:18:22.199Z,99614.65
2022-09-28T03:20:51.069Z,99615.16
2022-09-28T03:23:24.826Z,99618.90
2022-09-28T03:25:54.938Z,99623.84
2022-09-28T03:28:23.706Z,99627.92
2022-09-28T03:30:52.085Z,99638.09
2022-09-28T03:33:21.282Z,99639.70
2022-09-28T03:35:50.702Z,99636.23
2022-09-28T03:38:19.578Z,99635.14
2022-09-28T03:40:58.546Z,99635.26
2022-09-28T03:43:27.395Z,99636.67
2022-09-28T03:45:57.862Z,99638.85
2022-09-28T03:48:32.669Z,99642.24
2022-09-28T03:51:03.227Z,99642.02
2022-09-28T03:53:33.026Z,99641.34
2022-09-28T03:56:04.145Z,99647.70
2022-09-28T03:58:32.812Z,99640.61
2022-09-28T04:01:02.751Z,99647.19
2022-09-28T04:03:31.848Z,99643.64
2022-09-28T04:06:00.742Z,99644.57
2022-09-28T04:08:29.631Z,99646.28
2022-09-28T04:10:58.825Z,99650.17
2022-09-28T04:13:28.333Z,99649.24
2022-09-28T04:15:57.862Z,99642.89
2022-09-28T04:18:27.040Z,99640.48
2022-09-28T04:21:09.114Z,99644.91
2022-09-28T04:23:44.357Z,99643.99
2022-09-28T04:26:17.058Z,99650.55
2022-09-28T04:29:06.739Z,99655.96
2022-09-28T04:31:52.392Z,99658.11
2022-09-28T04:34:23.158Z,99656.96
2022-09-28T04:36:51.644Z,99661.77
2022-09-28T04:39:20.739Z,99668.30
2022-09-28T04:41:52.598Z,99672.76
2022-09-28T04:44:20.880Z,99670.34
2022-09-28T04:46:51.202Z,99675.23
2022-09-28T04:49:42.351Z,99677.85
2022-09-28T04:52:18.218Z,99680.58
2022-09-28T04:54:50.055Z,99680.64
2022-09-28T04:57:20.862Z,99675.05
2022-09-28T04:59:49.160Z,99676.51
2022-09-28T05:02:18.210Z,99671.56
2022-09-28T05:05:25.229Z,99672.05
2022-09-28T05:08:16.962Z,99675.23
2022-09-28T05:10:46.154Z,99674.26
2022-09-28T05:13:14.634Z,99680.48
2022-09-28T05:15:43.323Z,99687.58
2022-09-28T05:18:12.007Z,99692.35
2022-09-28T05:20:49.510Z,99700.51
2022-09-28T05:23:18.495Z,99700.50
2022-09-28T05:25:47.492Z,99703.23
2022-09-28T05:28:30.206Z,99704.65
2022-09-28T05:31:17.623Z,99706.00
2022-09-28T05:34:04.653Z,99700.48
2022-09-28T05:36:33.446Z,99693.60
2022-09-28T05:39:03.891Z,99689.95
2022-09-28T05:41:32.514Z,99693.41
2022-09-28T05:44:02.193Z,99687.23
2022-09-28T05:46:31.464Z,99684.58
2022-09-28T05:49:03.715Z,99687.71
2022-09-28T05:51:32.114Z,99693.56
2022-09-28T05:54:05.449Z,99696.42
2022-09-28T05:56:35.641Z,99703.36
2022-09-28T05:59:06.504Z,99711.53
2022-09-28T06:01:34.907Z,99710.70
2022-09-28T06:04:04.767Z,99714.27
2022-09-28T06:06:34.794Z,99721.73
2022-09-28T06:09:03.070Z,99714.77
2022-09-28T06:12:04.314Z,99713.77
2022-09-28T06:14:49.798Z,99717.23
2022-09-28T06:17:18.586Z,99730.73
2022-09-28T06:19:53.518Z,99733.58
2022-09-28T06:22:35.471Z,99740.02
2022-09-28T06:25:09.627Z,99744.30
2022-09-28T06:27:42.801Z,99747.58
2022-09-28T06:30:11.922Z,99744.54
2022-09-28T06:32:42.387Z,99747.47
2022-09-28T06:35:11.243Z,99754.61
2022-09-28T06:37:39.947Z,99758.39
2022-09-28T06:40:08.955Z,99751.90
2022-09-28T06:42:37.818Z,99755.46
2022-09-28T06:45:25.725Z,99748.14
2022-09-28T06:48:10.772Z,99745.77
2022-09-28T06:50:43.709Z,99746.31
2022-09-28T06:53:30.732Z,99748.89
2022-09-28T06:56:21.432Z,99751.60
2022-09-28T06:58:50.019Z,99750.16
2022-09-28T07:01:18.872Z,99749.81
2022-09-28T07:04:03.673Z,99750.27
2022-09-28T07:06:50.855Z,99746.78
2022-09-28T07:09:42.207Z,99747.84
2022-09-28T07:12:34.968Z,99747.99
2022-09-28T07:15:06.400Z,99753.95
2022-09-28T07:17:44.211Z,99759.40
2022-09-28T07:20:20.503Z,99762.55
2022-09-28T07:23:03.147Z,99762.54
2022-09-28T07:25:58.572Z,99758.42
2022-09-28T07:28:47.270Z,99757.84
2022-09-28T07:31:35.719Z,99753.85
2022-09-28T07:34:17.732Z,99757.98
2022-09-28T07:37:00.243Z,99758.62
2022-09-28T07:39:29.430Z,99753.33
2022-09-28T07:42:02.516Z,99761.06
2022-09-28T07:44:32.641Z,99762.08
2022-09-28T07:47:02.803Z,99767.01
2022-09-28T07:49:53.057Z,99766.57
2022-09-28T07:52:42.759Z,99764.77
2022-09-28T07:55:20.127Z,99768.15
2022-09-28T07:58:01.308Z,99769.44
2022-09-28T08:00:52.856Z,99767.14
2022-09-28T08:03:24.372Z,99770.16
2022-09-28T08:06:00.729Z,99769.03
2022-09-28T08:08:30.362Z,99770.48
2022-09-28T08:10:59.568Z,99766.75
2022-09-28T08:13:55.760Z,99767.78
2022-09-28T08:16:52.066Z,99761.75
2022-09-28T08:20:13.861Z,99763.61
2022-09-28T08:22:42.865Z,99765.08
2022-09-28T08:25:11.542Z,99767.12
2022-09-28T08:27:39.922Z,99767.75
2022-09-28T08:30:09.020Z,99764.07
2022-09-28T08:32:51.736Z,99764.45
2022-09-28T08:35:40.415Z,99761.48
2022-09-28T08:38:19.191Z,99758.41
2022-09-28T08:41:25.165Z,99763.95
2022-09-28T08:44:24.792Z,99761.55
2022-09-28T08:47:39.048Z,99759.05
2022-09-28T08:50:29.869Z,99755.17
2022-09-28T08:53:18.425Z,99752.41
2022-09-28T08:56:05.351Z,99747.02
2022-09-28T08:58:36.466Z,99747.10
2022-09-28T09:01:08.268Z,99745.35
2022-09-28T09:03:39.720Z,99737.58
2022-09-28T09:06:30.258Z,99735.11
2022-09-28T09:09:23.953Z,99734.63
2022-09-28T09:11:52.719Z,99733.29
2022-09-28T09:14:29.707Z,99729.11
2022-09-28T09:17:13.875Z,99735.20
2022-09-28T09:20:26.183Z,99739.51
2022-09-28T09:23:08.492Z,99737.86
2022-09-28T09:25:48.958Z,99734.11
2022-09-28T09:28:20.245Z,99735.16
2022-09-28T09:31:08.078Z,99732.59
2022-09-28T09:33:57.309Z,99734.81
2022-09-28T09:36:47.605Z,99735.74
2022-09-28T09:39:31.345Z,99734.23
2022-09-28T09:42:31.984Z,99736.36
2022-09-28T09:45:38.639Z,99731.50
2022-09-28T09:48:51.074Z,99730.04
2022-09-28T09:51:19.864Z,99729.90
2022-09-28T09:54:00.491Z,99728.34
2022-09-28T09:56:55.333Z,99726.80
2022-09-28T10:00:01.087Z,99721.10
2022-09-28T10:02:51.110Z,99721.46
2022-09-28T10:05:37.040Z,99724.63
2022-09-28T10:08:14.766Z,99725.40
2022-09-28T10:10:54.925Z,99721.91
2022-09-28T10:13:23.716Z,99721.38
2022-09-28T10:15:55.884Z,99722.66
2022-09-28T10:18:28.569Z,99724.31
2022-09-28T10:21:29.510Z,99723.05
2022-09-28T10:24:07.749Z,99720.16
2022-09-28T10:26:39.887Z,99724.33
2022-09-28T10:29:23.172Z,99725.71
2022-09-28T10:31:52.805Z,99726.77
2022-09-28T10:34:30.544Z,99721.52
2022-09-28T10:37:10.374Z,99717.16
2022-09-28T10:40:01.798Z,99721.13
2022-09-28T10:42:34.478Z,99723.71
2022-09-28T10:45:23.647Z,99718.09
2022-09-28T10:47:52.640Z,99718.22
2022-09-28T10:50:25.671Z,99722.15
2022-09-28T10:53:21.247Z,99719.77
2022-09-28T10:56:18.398Z,99722.30
2022-09-28T10:58:48.933Z,99724.76
2022-09-28T11:01:34.745Z,99724.27
2022-09-28T11:04:07.052Z,99725.75
2022-09-28T11:06:39.660Z,99724.75
2022-09-28T11:09:30.877Z,99725.06
2022-09-28T11:12:06.142Z,99725.73
2022-09-28T11:14:42.642Z,99726.08
2022-09-28T11:17:39.041Z,99731.82
2022-09-28T11:20:28.274Z,99728.89
2022-09-28T11:23:19.322Z,99726.48
2022-09-28T11:26:19.084Z,99725.77
2022-09-28T11:28:51.321Z,99727.53
2022-09-28T11:31:28.543Z,99726.64
2022-09-28T11:34:14.325Z,99728.20
2022-09-28T11:37:03.556Z,99726.04
2022-09-28T11:39:51.696Z,99726.16
2022-09-28T11:42:46.566Z,99726.70
2022-09-28T11:45:35.763Z,99719.92
2022-09-28T11:48:06.737Z,99713.41
2022-09-28T11:50:44.918Z,99711.35
2022-09-28T11:53:13.913Z,99712.46
2022-09-28T11:55:46.007Z,99707.33
2022-09-28T11:58:23.780Z,99705.50
2022-09-28T12:00:56.655Z,99707.16
2022-09-28T12:03:50.745Z,99713.34
2022-09-28T12:06:22.918Z,99707.95
2022-09-28T12:08:54.656Z,99714.81
2022-09-28T12:11:46.133Z,99709.50
2022-09-28T12:14:23.909Z,99710.84
2022-09-28T12:17:07.976Z,99712.73
2022-09-28T12:19:41.756Z,99714.67
2022-09-28T12:22:18.840Z,99713.48
2022-09-28T12:24:49.779Z,99713.45
2022-09-28T12:27:23.382Z,99713.62
2022-09-28T12:30:02.887Z,99705.05
2022-09-28T12:32:47.075Z,99709.38
2022-09-28T12:35:33.276Z,99710.04
2022-09-28T12:38:18.755Z,99709.49
2022-09-28T12:40:47.312Z,99705.05
2022-09-28T12:43:17.871Z,99703.61
2022-09-28T12:46:10.866Z,99704.67
2022-09-28T12:49:04.207Z,99702.64
2022-09-28T12:51:37.882Z,99699.23
2022-09-28T12:54:34.748Z,99697.35
2022-09-28T12:57:05.749Z,99696.60
2022-09-28T12:59:53.943Z,99697.05
2022-09-28T13:02:22.274Z,99692.85
2022-09-28T13:04:51.002Z,99696.92
2022-09-28T13:07:25.385Z,99697.23
2022-09-28T13:10:16.959Z,99695.83
2022-09-28T13:13:03.433Z,99692.05
2022-09-28T13:15:45.289Z,99692.66
2022-09-28T13:18:18.747Z,99693.98
2022-09-28T13:21:06.686Z,99687.41
2022-09-28T13:23:38.244Z,99696.38
2022-09-28T13:26:15.325Z,99695.20
2022-09-28T13:28:46.491Z,99699.14
2022-09-28T13:31:19.683Z,99693.42
2022-09-28T13:33:49.374Z,99700.16
2022-09-28T13:36:33.123Z,99694.77
2022-09-28T13:39:01.498Z,99696.27
2022-09-28T13:41:38.272Z,99695.39
2022-09-28T13:44:13.002Z,99708.33
2022-09-28T13:46:41.690Z,99715.73
2022-09-28T13:49:09.967Z,99716.16
2022-09-28T13:51:58.624Z,99718.79
2022-09-28T13:54:27.167Z,99719.48
2022-09-28T13:56:58.252Z,99717.55
2022-09-28T13:59:28.353Z,99720.28
2022-09-28T14:02:06.795Z,99724.73
2022-09-28T14:04:57.408Z,99727.36
2022-09-28T14:07:34.964Z,99727.95
2022-09-28T14:10:24.933Z,99729.59
2022-09-28T14:12:54.620Z,99732.64
2022-09-28T14:15:28.870Z,99731.56
2022-09-28T14:18:14.121Z,99730.78
2022-09-28T14:20:48.908Z,99726.39
2022-09-28T14:23:40.440Z,99724.30
2022-09-28T14:26:11.885Z,99722.58
2022-09-28T14:28:50.607Z,99727.32
2022-09-28T14:31:25.925Z,99731.81
2022-09-28T14:33:57.210Z,99736.60
2022-09-28T14:36:55.396Z,99737.75
2022-09-28T14:39:47.177Z,99739.27
2022-09-28T14:42:17.839Z,99740.77
2022-09-28T14:45:07.299Z,99740.05
2022-09-28T14:47:38.562Z,99735.52
2022-09-28T14:50:26.536Z,99736.19
2022-09-28T14:52:56.212Z,99735.66
2022-09-28T14:55:28.685Z,99735.86
2022-09-28T14:57:58.299Z,99741.08
2022-09-28T15:00:30.648Z,99742.77
2022-09-28T15:03:05.964Z,99739.09
2022-09-28T15:05:47.386Z,99743.52
2022-09-28T15:08:18.210Z,99746.69
2022-09-28T15:10:47.847Z,99751.80
2022-09-28T15:13:22.103Z,99750.63
2022-09-28T15:15:52.045Z,99759.41
2022-09-28T15:18:20.471Z,99757.95
2022-09-28T15:20:50.247Z,99755.61
2022-09-28T15:23:26.770Z,99757.81
2022-09-28T15:25:55.744Z,99758.18
2022-09-28T15:28:24.635Z,99762.85
2022-09-28T15:30:59.733Z,99767.41
2022-09-28T15:33:48.634Z,99773.35
2022-09-28T15:36:29.183Z,99779.42
2022-09-28T15:39:00.345Z,99778.44
2022-09-28T15:41:29.135Z,99780.55
2022-09-28T15:44:13.085Z,99786.92
2022-09-28T15:46:48.151Z,99788.14
2022-09-28T15:49:39.061Z,99794.94
2022-09-28T15:52:22.683Z,99795.64
2022-09-28T15:54:51.455Z,99794.55
2022-09-28T15:57:33.055Z,99791.25
2022-09-28T16:00:01.749Z,99791.77
2022-09-28T16:02:57.174Z,99792.51
2022-09-28T16:05:36.082Z,99796.36
2022-09-28T16:08:05.280Z,99798.98
2022-09-28T16:10:34.780Z,99803.24
2022-09-28T16:13:14.595Z,99801.57
2022-09-28T16:15:43.381Z,99811.61
2022-09-28T16:18:54.783Z,99813.91
2022-09-28T16:22:12.134Z,99809.63
2022-09-28T16:25:20.296Z,99815.34
2022-09-28T16:31:21.135Z,99819.11
2022-09-28T16:33:49.695Z,99815.84
2022-09-28T16:36:18.588Z,99817.06
2022-09-28T16:38:47.869Z,99819.52
2022-09-28T16:41:19.679Z,99820.52
2022-09-28T16:43:48.644Z,99825.63
2022-09-28T16:46:20.848Z,99830.32
2022-09-28T16:49:29.232Z,99832.77
2022-09-28T16:52:37.561Z,99830.13
2022-09-28T16:55:36.204Z,99842.40
2022-09-28T16:58:05.046Z,99842.11
2022-09-28T17:00:33.926Z,99844.52
2022-09-28T17:03:02.579Z,99849.47
2022-09-28T17:05:31.078Z,99850.66
2022-09-28T17:08:04.155Z,99845.48
2022-09-28T17:13:41.465Z,99850.15
2022-09-28T17:16:27.937Z,99845.92
2022-09-28T17:19:18.346Z,99844.19
2022-09-28T17:21:47.390Z,99845.92
2022-09-28T17:24:15.770Z,99847.70
2022-09-28T17:26:45.275Z,99848.52
2022-09-28T17:29:14.883Z,99850.20
2022-09-28T17:31:44.082Z,99855.02
2022-09-28T17:34:14.045Z,99854.16
2022-09-28T17:36:43.610Z,99849.41
2022-09-28T17:39:16.147Z,99855.16
2022-09-28T17:41:44.568Z,99860.30
2022-09-28T17:44:16.606Z,99861.41
2022-09-28T17:46:48.834Z,99865.50
2022-09-28T17:49:18.004Z,99864.23
2022-09-28T17:51:46.586Z,99864.10
2022-09-28T17:54:17.221Z,99865.15
2022-09-28T17:56:46.442Z,99865.17
2022-09-28T17:59:16.952Z,99868.02
2022-09-28T18:01:45.390Z,99868.09
2022-09-28T18:04:33.338Z,99864.58
2022-09-28T18:07:03.902Z,99865.04
2022-09-28T18:09:32.076Z,99866.38
2022-09-28T18:12:04.540Z,99867.23
2022-09-28T18:14:33.441Z,99865.50
2022-09-28T18:17:02.135Z,99859.63
2022-09-28T18:19:32.310Z,99854.84
2022-09-28T18:22:01.968Z,99858.48
2022-09-28T18:24:32.778Z,99855.52
2022-09-28T18:27:01.389Z,99857.75
2022-09-28T18:29:33.070Z,99860.56
2022-09-28T18:32:03.061Z,99866.53
2022-09-28T18:34:31.451Z,99869.66
2022-09-28T18:36:59.616Z,99868.63
2022-09-28T18:39:28.202Z,99866.02
2022-09-28T18:41:56.901Z,99866.02
2022-09-28T18:44:25.166Z,99866.54
2022-09-28T18:46:53.831Z,99873.45
2022-09-28T18:49:22.442Z,99878.28
2022-09-28T18:51:50.882Z,99878.04
2022-09-28T18:54:19.272Z,99881.67
2022-09-28T18:56:47.731Z,99882.03
2022-09-28T18:59:16.164Z,99877.61
2022-09-28T19:01:44.671Z,99879.40
2022-09-28T19:04:13.699Z,99883.84
2022-09-28T19:06:43.152Z,99885.63
2022-09-28T19:09:12.298Z,99885.55
2022-09-28T19:11:40.955Z,99885.67
2022-09-28T19:14:11.218Z,99887.79
2022-09-28T19:16:39.624Z,99898.77
2022-09-28T19:19:09.349Z,99901.95
2022-09-28T19:21:37.753Z,99905.23
2022-09-28T19:24:06.313Z,99902.05
2022-09-28T19:26:34.731Z,99905.69
2022-09-28T19:29:03.586Z,99906.52
2022-09-28T19:31:33.091Z,99902.70
2022-09-28T19:34:01.810Z,99903.27
2022-09-28T19:36:31.388Z,99900.19
2022-09-28T19:39:03.490Z,99894.61
2022-09-28T19:41:44.982Z,99897.48
2022-09-28T19:44:24.914Z,99893.55
2022-09-28T19:46:56.310Z,99899.00
2022-09-28T19:49:25.748Z,99902.02
2022-09-28T19:54:58.554Z,99904.13
2022-09-28T19:57:28.710Z,99904.25
2022-09-28T20:00:01.971Z,99905.98
2022-09-28T20:02:35.351Z,99905.98
2022-09-28T20:05:04.050Z,99908.30
2022-09-28T20:07:33.663Z,99905.48
2022-09-28T20:10:02.279Z,99903.96
2022-09-28T20:12:30.734Z,99909.27
2022-09-28T20:14:59.519Z,99908.56
2022-09-28T20:17:28.108Z,99912.23
2022-09-28T20:19:57.835Z,99912.65
2022-09-28T20:22:25.992Z,99916.45
2022-09-28T20:24:54.543Z,99915.60
2022-09-28T20:27:26.379Z,99912.44
2022-09-28T20:29:54.922Z,99916.66
2022-09-28T20:32:23.300Z,99922.39
2022-09-28T20:34:51.987Z,99928.75
2022-09-28T20:37:20.573Z,99923.99
2022-09-28T20:39:49.360Z,99925.59
2022-09-28T20:42:17.739Z,99925.88
2022-09-28T20:44:46.223Z,99929.70
2022-09-28T20:47:14.813Z,99933.72
2022-09-28T20:49:44.730Z,99932.57
2022-09-28T20:52:13.107Z,99930.27
2022-09-28T20:54:41.689Z,99938.27
2022-09-28T20:57:20.414Z,99939.09
2022-09-28T20:59:54.364Z,99939.07
2022-09-28T21:02:23.540Z,99936.85
2022-09-28T21:04:52.110Z,99942.98
2022-09-28T21:07:20.383Z,99949.04
2022-09-28T21:09:48.969Z,99951.86
2022-09-28T21:12:17.662Z,99957.13
2022-09-28T21:14:46.034Z,99955.87
2022-09-28T21:17:15.235Z,99953.36
2022-09-28T21:19:43.718Z,99953.70
2022-09-28T21:22:11.995Z,99960.40
2022-09-28T21:24:40.332Z,99967.69
2022-09-28T21:27:09.165Z,99974.19
2022-09-28T21:29:37.340Z,99974.83
2022-09-28T21:32:06.231Z,99972.04
2022-09-28T21:34:36.124Z,99971.06
2022-09-28T21:37:04.423Z,99978.06
2022-09-28T21:39:32.910Z,99980.74
2022-09-28T21:42:01.490Z,99979.32
2022-09-28T21:44:30.076Z,99973.02
2022-09-28T21:46:58.561Z,99979.20
2022-09-28T21:49:26.835Z,99979.01
2022-09-28T21:51:55.384Z,99976.25
2022-09-28T21:54:24.005Z,99973.26
2022-09-28T21:56:52.998Z,99968.02
2022-09-28T21:59:21.173Z,99973.48
2022-09-28T22:01:49.825Z,99977.39
2022-09-28T22:04:18.677Z,99977.20
2022-09-28T22:06:47.033Z,99974.58
2022-09-28T22:09:15.525Z,99976.51
2022-09-28T22:11:44.201Z,99984.44
2022-09-28T22:14:12.684Z,99988.49
2022-09-28T22:16:41.478Z,99987.64
2022-09-28T22:19:10.261Z,99989.58
2022-09-28T22:21:39.280Z,99984.50
2022-09-28T22:24:08.047Z,99976.30
2022-09-28T22:26:37.245Z,99976.66
2022-09-28T22:29:06.649Z,99976.90
2022-09-28T22:31:36.428Z,99986.59
2022-09-28T22:34:05.744Z,99990.59
2022-09-28T22:36:34.579Z,99995.20
2022-09-28T22:39:02.933Z,99994.86
2022-09-28T22:41:32.651Z,99996.88
2022-09-28T22:44:01.540Z,99992.88
2022-09-28T22:46:32.401Z,99995.61
2022-09-28T22:49:01.680Z,99992.75
2022-09-28T22:51:30.977Z,99991.16
2022-09-28T22:53:59.460Z,99985.60
2022-09-28T22:56:28.556Z,99982.66
2022-09-28T22:58:56.730Z,99978.20
2022-09-28T23:01:29.877Z,99973.01
2022-09-28T23:03:58.658Z,99975.41
2022-09-28T23:06:29.266Z,99972.38
2022-09-28T23:08:58.034Z,99977.26
2022-09-28T23:11:27.232Z,99975.63
2022-09-28T23:13:57.049Z,99975.20
2022-09-28T23:16:27.087Z,99978.19
2022-09-28T23:18:56.163Z,99982.21
2022-09-28T23:21:25.750Z,99980.81
2022-09-28T23:23:58.350Z,99984.41
2022-09-28T23:26:28.368Z,99986.84
2022-09-28T23:28:57.467Z,99989.48
2022-09-28T23:31:32.324Z,99993.10
2022-09-28T23:34:05.390Z,99996.31
2022-09-28T23:36:34.297Z,99999.63
2022-09-28T23:39:03.584Z,100002.72
2022-09-28T23:41:32.266Z,99996.96
2022-09-28T23:44:00.952Z,99993.93
2022-09-28T23:46:29.587Z,99995.11
2022-09-28T23:48:57.945Z,99993.53
2022-09-28T23:51:26.298Z,99990.34
2022-09-28T23:53:54.702Z,99988.23
2022-09-28T23:56:23.108Z,99984.59
2022-09-28T23:58:51.741Z,99978.40
